Time;durP1;ratioP1;P1;durP2;ratioP2;P2;SDS_P1;SDS_P2;PMS_P1;PMS_P2;Temp;Humidity;BMP_temperature;BMP_pressure;BME280_temperature;BME280_humidity;BME280_pressure;Samples;Min_cycle;Max_cycle;Signal;HPM_P1;HPM_P2
2021/01/21 00:02:02;;;;;;;2.00;1.60;;;21.80;50.10;;;;;;5013128;28;20195;-65
2021/01/21 00:04:27;;;;;;;1.93;1.30;;;21.80;50.10;;;;;;5013573;28;20192;-65
2021/01/21 00:06:53;;;;;;;2.27;1.40;;;21.70;50.00;;;;;;5013541;28;20247;-65
2021/01/21 00:09:20;;;;;;;1.80;1.20;;;21.70;50.00;;;;;;5013162;28;20288;-65
2021/01/21 00:11:45;;;;;;;3.60;1.60;;;21.70;50.00;;;;;;5013069;28;20203;-65
2021/01/21 00:14:11;;;;;;;2.27;1.50;;;21.70;50.10;;;;;;5013069;28;20407;-65
2021/01/21 00:16:37;;;;;;;1.97;1.30;;;21.70;50.10;;;;;;5013130;28;20174;-65
2021/01/21 00:19:03;;;;;;;2.93;1.70;;;21.70;50.10;;;;;;5013127;28;20168;-65
2021/01/21 00:21:28;;;;;;;2.37;1.63;;;21.70;50.10;;;;;;5013069;28;20650;-65
2021/01/21 00:23:57;;;;;;;2.57;1.60;;;21.70;50.10;;;;;;5012978;28;20796;-65
2021/01/21 00:26:22;;;;;;;2.40;1.30;;;21.70;50.10;;;;;;5013072;28;20168;-65
2021/01/21 00:28:48;;;;;;;2.33;1.40;;;21.70;50.10;;;;;;5013242;28;20473;-65
2021/01/21 00:31:13;;;;;;;2.50;1.53;;;21.70;50.10;;;;;;5013260;28;20172;-65
2021/01/21 00:33:39;;;;;;;2.20;1.30;;;21.70;50.10;;;;;;5012877;28;20188;-65
2021/01/21 00:36:05;;;;;;;3.57;1.60;;;21.70;50.10;;;;;;5016158;28;20157;-65
2021/01/21 00:38:30;;;;;;;2.07;1.63;;;21.70;50.10;;;;;;5017115;28;20231;-65
2021/01/21 00:40:56;;;;;;;2.27;1.40;;;21.70;50.10;;;;;;5016714;28;20411;-63
2021/01/21 00:43:22;;;;;;;3.27;1.80;;;21.70;50.20;;;;;;5016621;28;20254;-65
2021/01/21 00:45:50;;;;;;;1.70;1.20;;;21.60;50.10;;;;;;5017431;28;20184;-65
2021/01/21 00:48:17;;;;;;;3.70;1.50;;;21.60;50.20;;;;;;5016574;28;20299;-65
2021/01/21 00:50:42;;;;;;;2.60;1.30;;;21.60;50.10;;;;;;5016560;28;20404;-65
2021/01/21 00:53:08;;;;;;;2.40;1.60;;;21.60;50.10;;;;;;5016545;28;20956;-65
2021/01/21 00:55:34;;;;;;;2.20;1.50;;;21.60;50.10;;;;;;5016508;28;20246;-65
2021/01/21 00:57:59;;;;;;;1.73;1.20;;;21.60;50.20;;;;;;5016425;28;20205;-65
2021/01/21 01:00:25;;;;;;;1.53;1.20;;;21.60;50.20;;;;;;5016471;28;20638;-65
2021/01/21 01:02:50;;;;;;;1.77;1.10;;;21.60;50.20;;;;;;5016324;28;20227;-65
2021/01/21 01:05:16;;;;;;;2.07;1.30;;;21.60;50.20;;;;;;5016355;28;20176;-65
2021/01/21 01:07:42;;;;;;;2.57;1.53;;;21.60;50.20;;;;;;5016295;28;20199;-65
2021/01/21 01:10:08;;;;;;;3.27;1.47;;;21.60;50.20;;;;;;5016186;28;20247;-65
2021/01/21 01:12:33;;;;;;;1.87;1.43;;;21.60;50.20;;;;;;5016080;28;20647;-65
2021/01/21 01:14:59;;;;;;;4.20;2.00;;;21.60;50.30;;;;;;5014888;28;20415;-65
2021/01/21 01:17:25;;;;;;;1.87;1.33;;;21.60;50.30;;;;;;5016340;28;20628;-65
2021/01/21 01:19:50;;;;;;;2.80;1.80;;;21.50;50.20;;;;;;5016052;28;20168;-65
2021/01/21 01:22:16;;;;;;;2.13;1.10;;;21.60;50.30;;;;;;5015913;28;20192;-65
2021/01/21 01:24:41;;;;;;;2.13;1.40;;;21.60;50.30;;;;;;5015892;28;20172;-65
2021/01/21 01:27:07;;;;;;;3.00;1.50;;;21.60;50.30;;;;;;5015836;28;20176;-65
2021/01/21 01:29:33;;;;;;;2.30;1.30;;;21.60;50.30;;;;;;5015907;28;20173;-65
2021/01/21 01:31:59;;;;;;;1.97;1.43;;;21.60;50.30;;;;;;5015717;28;20439;-64
2021/01/21 01:34:25;;;;;;;2.40;1.50;;;21.50;50.30;;;;;;5015819;28;20898;-65
2021/01/21 01:36:50;;;;;;;2.80;1.63;;;21.60;50.30;;;;;;5015716;28;20180;-65
2021/01/21 01:39:16;;;;;;;2.23;1.30;;;21.50;50.20;;;;;;5015651;28;20170;-65
2021/01/21 01:41:41;;;;;;;1.70;1.10;;;21.50;50.30;;;;;;5015849;28;20172;-65
2021/01/21 01:44:07;;;;;;;2.43;1.50;;;21.50;50.30;;;;;;5015537;28;20172;-65
2021/01/21 01:46:33;;;;;;;2.63;1.30;;;21.50;50.90;;;;;;5014462;28;20230;-65
2021/01/21 01:48:59;;;;;;;1.90;1.20;;;21.50;50.30;;;;;;5015394;28;20199;-65
2021/01/21 01:51:25;;;;;;;1.90;1.10;;;21.50;50.30;;;;;;5015562;28;20165;-65
2021/01/21 01:53:51;;;;;;;3.80;1.60;;;21.50;50.30;;;;;;5015645;28;20790;-65
2021/01/21 01:56:17;;;;;;;2.27;1.10;;;21.50;50.30;;;;;;5014657;28;20411;-65
2021/01/21 01:58:43;;;;;;;2.73;1.57;;;21.50;50.30;;;;;;5015303;28;20176;-64
2021/01/21 02:01:10;;;;;;;2.40;1.40;;;21.50;50.30;;;;;;5015579;28;20466;-65
2021/01/21 02:03:35;;;;;;;1.73;1.10;;;21.50;50.30;;;;;;5015177;28;20439;-65
2021/01/21 02:06:03;;;;;;;2.17;1.63;;;21.50;50.30;;;;;;5015162;28;20411;-64
2021/01/21 02:08:29;;;;;;;1.67;1.10;;;21.50;50.40;;;;;;5013783;28;20200;-65
2021/01/21 02:11:03;;;;;;;1.80;1.20;;;21.50;50.40;;;;;;5015208;28;20403;-65
2021/01/21 02:13:49;;;;;;;2.17;1.40;;;21.50;50.40;;;;;;5014996;28;20196;-65
2021/01/21 02:16:41;;;;;;;2.87;1.33;;;21.50;50.40;;;;;;5015298;28;20388;-65
2021/01/21 02:19:25;;;;;;;2.33;1.67;;;21.50;50.40;;;;;;5014940;28;20940;-65
2021/01/21 02:22:28;;;;;;;2.07;1.67;;;21.50;50.40;;;;;;5014838;28;20407;-65
2021/01/21 02:25:13;;;;;;;1.70;1.37;;;21.50;50.40;;;;;;5014880;28;20893;-65
2021/01/21 02:28:07;;;;;;;1.50;1.10;;;21.50;50.50;;;;;;5014677;28;20494;-65
2021/01/21 02:30:58;;;;;;;3.93;1.47;;;21.50;50.50;;;;;;5014687;28;20391;-65
2021/01/21 02:33:44;;;;;;;1.80;1.43;;;21.50;50.50;;;;;;5014884;28;20426;-65
2021/01/21 02:36:18;;;;;;;1.60;1.30;;;21.50;50.50;;;;;;5014893;28;20471;-65
2021/01/21 02:38:45;;;;;;;2.30;1.30;;;21.40;50.40;;;;;;5013269;28;20412;-65
2021/01/21 02:41:12;;;;;;;2.40;1.37;;;21.40;50.50;;;;;;5014453;28;20435;-65
2021/01/21 02:43:38;;;;;;;1.80;1.30;;;21.40;50.50;;;;;;5014439;28;20474;-65
2021/01/21 02:46:03;;;;;;;1.73;1.17;;;21.40;50.50;;;;;;5014653;28;20431;-65
2021/01/21 02:48:31;;;;;;;1.80;1.33;;;21.40;50.50;;;;;;5014475;28;20193;-65
2021/01/21 02:51:22;;;;;;;2.20;1.50;;;21.40;50.50;;;;;;5014338;28;20161;-65
2021/01/21 02:54:04;;;;;;;2.33;1.50;;;21.50;50.50;;;;;;5013102;28;20797;-65
2021/01/21 02:56:35;;;;;;;2.30;1.47;;;21.40;50.50;;;;;;5014523;28;20396;-65
2021/01/21 02:59:04;;;;;;;1.73;1.30;;;21.40;50.50;;;;;;5013944;28;20745;-64
2021/01/21 03:01:33;;;;;;;2.23;1.70;;;21.40;50.40;;;;;;5014127;28;20423;-65
2021/01/21 03:04:00;;;;;;;1.27;0.93;;;21.40;50.40;;;;;;5014047;28;20427;-65
2021/01/21 03:06:28;;;;;;;2.00;1.10;;;21.40;50.40;;;;;;5014368;28;20498;-65
2021/01/21 03:08:54;;;;;;;2.23;1.20;;;21.40;50.40;;;;;;5013932;28;20517;-65
2021/01/21 03:11:20;;;;;;;2.33;1.23;;;21.40;50.40;;;;;;5013812;28;20430;-65
2021/01/21 03:13:46;;;;;;;2.07;1.10;;;21.40;50.40;;;;;;5013928;28;20196;-65
2021/01/21 03:16:12;;;;;;;2.87;1.57;;;21.40;50.40;;;;;;5014182;28;20562;-65
2021/01/21 03:18:38;;;;;;;2.43;1.33;;;21.40;50.40;;;;;;5013860;28;20182;-65
2021/01/21 03:21:04;;;;;;;2.30;1.30;;;21.40;50.40;;;;;;5013838;28;20913;-65
2021/01/21 03:23:30;;;;;;;1.60;1.40;;;21.50;50.40;;;;;;5013728;28;20204;-65
2021/01/21 03:25:55;;;;;;;1.60;1.17;;;21.40;50.30;;;;;;5013724;28;20176;-65
2021/01/21 03:28:21;;;;;;;1.13;1.03;;;21.50;50.40;;;;;;5013771;28;20224;-65
2021/01/21 03:30:47;;;;;;;2.03;1.17;;;21.50;50.40;;;;;;5013658;28;20173;-65
2021/01/21 03:33:13;;;;;;;2.63;1.30;;;21.50;50.40;;;;;;5013652;28;20184;-65
2021/01/21 03:35:38;;;;;;;1.83;1.47;;;21.40;50.30;;;;;;5013569;28;20894;-65
2021/01/21 03:38:04;;;;;;;1.73;1.30;;;21.40;50.30;;;;;;5013565;28;20179;-64
2021/01/21 03:40:29;;;;;;;1.80;1.20;;;21.50;50.40;;;;;;5013503;28;20545;-65
2021/01/21 03:42:55;;;;;;;1.77;1.20;;;21.40;50.40;;;;;;5013416;28;20554;-65
2021/01/21 03:45:21;;;;;;;1.23;1.00;;;21.40;50.40;;;;;;5013484;28;20168;-65
2021/01/21 03:47:46;;;;;;;1.70;1.03;;;21.40;50.40;;;;;;5013340;28;20227;-65
2021/01/21 03:50:12;;;;;;;2.40;1.40;;;21.40;50.40;;;;;;5013399;28;20199;-65
2021/01/21 03:52:38;;;;;;;1.70;1.20;;;21.50;50.50;;;;;;5013295;28;20203;-64
2021/01/21 03:55:04;;;;;;;1.53;1.30;;;21.40;50.40;;;;;;5013349;28;20423;-65
2021/01/21 03:57:30;;;;;;;3.27;1.37;;;21.40;50.40;;;;;;5013273;28;20265;-64
2021/01/21 03:59:55;;;;;;;1.80;1.00;;;21.40;50.40;;;;;;5013552;28;20435;-65
2021/01/21 04:02:21;;;;;;;1.37;1.00;;;21.40;50.40;;;;;;5013518;28;20259;-65
2021/01/21 04:04:46;;;;;;;1.87;1.07;;;21.40;50.40;;;;;;5013490;28;20176;-65
2021/01/21 04:07:12;;;;;;;2.43;1.40;;;21.40;50.40;;;;;;5013231;28;20259;-65
2021/01/21 04:09:38;;;;;;;1.77;1.00;;;21.40;50.50;;;;;;5012862;28;20180;-64
2021/01/21 04:12:04;;;;;;;2.60;1.50;;;21.40;50.50;;;;;;5017181;28;20709;-65
2021/01/21 04:14:29;;;;;;;1.50;1.13;;;21.40;50.50;;;;;;5015985;28;20658;-65
2021/01/21 04:16:55;;;;;;;1.40;1.20;;;21.40;50.50;;;;;;5017240;28;20403;-65
2021/01/21 04:19:20;;;;;;;1.40;0.97;;;21.40;50.50;;;;;;5017154;28;20587;-65
2021/01/21 04:21:46;;;;;;;3.47;2.03;;;21.40;50.50;;;;;;5017067;28;20172;-65
2021/01/21 04:24:11;;;;;;;1.93;1.20;;;21.40;50.50;;;;;;5017318;28;20207;-65
2021/01/21 04:26:37;;;;;;;1.87;1.10;;;21.40;50.50;;;;;;5017027;28;20179;-65
2021/01/21 04:29:03;;;;;;;1.57;1.27;;;21.30;50.50;;;;;;5017010;28;20603;-65
2021/01/21 04:31:29;;;;;;;1.63;1.20;;;21.30;50.50;;;;;;5017194;28;20173;-65
2021/01/21 04:33:54;;;;;;;2.53;1.13;;;21.30;50.50;;;;;;5016818;28;20431;-65
2021/01/21 04:36:20;;;;;;;1.80;0.90;;;21.30;50.50;;;;;;5016837;28;20179;-64
2021/01/21 04:38:45;;;;;;;1.67;1.07;;;21.30;50.50;;;;;;5015822;28;20569;-65
2021/01/21 04:41:12;;;;;;;2.77;1.30;;;21.30;50.60;;;;;;5016844;28;20259;-64
2021/01/21 04:43:38;;;;;;;1.63;1.07;;;21.30;50.60;;;;;;5016638;28;20192;-65
2021/01/21 04:46:07;;;;;;;2.23;1.40;;;21.30;50.60;;;;;;5016625;28;20423;-65
2021/01/21 04:48:33;;;;;;;1.43;1.20;;;21.30;50.60;;;;;;5016638;28;20274;-65
2021/01/21 04:51:00;;;;;;;1.33;1.03;;;21.30;50.60;;;;;;5016878;28;20438;-65
2021/01/21 04:53:27;;;;;;;1.53;1.10;;;21.30;50.60;;;;;;5016476;28;20717;-65
2021/01/21 04:56:00;;;;;;;1.57;1.00;;;21.30;50.60;;;;;;5016458;28;20461;-65
2021/01/21 04:58:31;;;;;;;1.57;1.10;;;21.30;50.60;;;;;;5016916;28;20457;-65
2021/01/21 05:00:59;;;;;;;1.73;1.30;;;21.30;50.60;;;;;;5016708;28;20391;-65
2021/01/21 05:03:26;;;;;;;1.83;1.00;;;21.30;50.60;;;;;;5016481;28;20434;-65
2021/01/21 05:05:52;;;;;;;1.67;1.03;;;21.20;50.60;;;;;;5016277;28;20415;-65
2021/01/21 05:08:18;;;;;;;1.87;1.00;;;21.20;50.70;;;;;;5016146;28;20454;-65
2021/01/21 05:10:45;;;;;;;1.20;1.03;;;21.20;50.70;;;;;;5016109;28;20460;-65
2021/01/21 05:13:10;;;;;;;1.60;1.10;;;21.20;50.70;;;;;;5016130;28;20427;-65
2021/01/21 05:15:36;;;;;;;1.90;1.10;;;21.20;50.70;;;;;;5016158;28;20804;-64
2021/01/21 05:18:02;;;;;;;1.83;1.10;;;21.20;50.70;;;;;;5016031;28;20296;-65
2021/01/21 05:20:28;;;;;;;2.03;1.40;;;21.20;50.70;;;;;;5015868;28;20173;-65
2021/01/21 05:22:58;;;;;;;1.80;1.07;;;21.20;50.70;;;;;;5016167;28;20793;-65
2021/01/21 05:25:25;;;;;;;1.20;0.90;;;21.20;50.70;;;;;;5015964;28;20247;-65
2021/01/21 05:27:52;;;;;;;1.30;1.00;;;21.20;50.70;;;;;;5015790;28;20450;-65
2021/01/21 05:30:18;;;;;;;1.87;1.20;;;21.20;50.70;;;;;;5015892;28;20437;-65
2021/01/21 05:32:44;;;;;;;1.53;0.80;;;21.20;50.70;;;;;;5015743;28;20434;-65
2021/01/21 05:35:14;;;;;;;1.97;1.10;;;21.20;50.70;;;;;;5015705;28;20419;-65
2021/01/21 05:37:40;;;;;;;1.80;1.17;;;21.20;50.70;;;;;;5015641;28;20423;-65
2021/01/21 05:40:07;;;;;;;2.07;1.87;;;21.20;50.70;;;;;;5015602;28;20518;-65
2021/01/21 05:42:36;;;;;;;1.47;1.10;;;21.30;50.70;;;;;;5015809;28;20188;-65
2021/01/21 05:45:03;;;;;;;1.80;0.93;;;21.30;50.60;;;;;;5015838;28;20494;-65
2021/01/21 05:47:29;;;;;;;1.67;1.17;;;21.30;50.60;;;;;;5015437;28;20426;-65
2021/01/21 05:49:56;;;;;;;1.67;0.90;;;21.30;50.50;;;;;;5015514;28;20399;-65
2021/01/21 05:52:22;;;;;;;1.83;0.90;;;21.30;50.50;;;;;;5015378;28;20481;-65
2021/01/21 05:54:49;;;;;;;1.93;1.23;;;21.30;50.50;;;;;;5015450;28;20404;-65
2021/01/21 05:57:16;;;;;;;1.30;1.10;;;21.30;50.50;;;;;;5015428;28;20169;-65
2021/01/21 05:59:43;;;;;;;2.07;1.17;;;21.30;50.50;;;;;;5015308;28;20422;-65
2021/01/21 06:02:09;;;;;;;1.13;0.90;;;21.40;50.50;;;;;;5015215;28;20797;-65
2021/01/21 06:04:36;;;;;;;1.80;1.13;;;21.30;50.50;;;;;;5015227;28;20777;-65
2021/01/21 06:07:04;;;;;;;1.50;1.10;;;21.30;50.50;;;;;;5015218;28;20945;-65
2021/01/21 06:09:31;;;;;;;1.73;1.00;;;21.40;50.50;;;;;;5013790;28;20482;-65
2021/01/21 06:12:03;;;;;;;2.13;1.13;;;21.40;50.50;;;;;;5014872;28;20565;-65
2021/01/21 06:14:29;;;;;;;2.10;1.17;;;21.40;50.50;;;;;;5014644;28;20502;-65
2021/01/21 06:16:56;;;;;;;1.47;1.00;;;21.40;50.50;;;;;;5014928;28;20542;-65
2021/01/21 06:19:22;;;;;;;1.90;1.10;;;21.40;50.50;;;;;;5014850;28;20184;-65
2021/01/21 06:22:00;;;;;;;1.77;0.97;;;21.40;50.50;;;;;;5015076;28;20762;-65
2021/01/21 06:24:30;;;;;;;2.33;1.00;;;21.40;50.50;;;;;;5014106;28;20191;-65
2021/01/21 06:27:02;;;;;;;1.30;0.80;;;21.40;50.50;;;;;;5014785;28;20407;-65
2021/01/21 06:29:31;;;;;;;1.63;1.07;;;21.40;50.40;;;;;;5014633;28;20473;-64
2021/01/21 06:32:01;;;;;;;1.70;1.20;;;21.40;50.40;;;;;;5014127;28;20400;-65
2021/01/21 06:34:31;;;;;;;1.10;0.83;;;21.50;50.50;;;;;;5015224;28;20380;-65
2021/01/21 06:37:01;;;;;;;1.67;1.23;;;21.50;50.50;;;;;;5014959;28;20391;-65
2021/01/21 06:40:00;;;;;;;1.27;1.00;;;21.40;50.40;;;;;;5014543;28;20490;-65
2021/01/21 06:42:30;;;;;;;1.10;0.80;;;21.40;50.30;;;;;;5014492;28;20434;-65
2021/01/21 06:44:57;;;;;;;2.30;1.53;;;21.50;50.40;;;;;;5013169;28;20411;-65
2021/01/21 06:47:24;;;;;;;1.97;1.13;;;21.40;50.40;;;;;;5014606;28;20434;-66
2021/01/21 06:50:04;;;;;;;1.30;0.90;;;21.50;50.50;;;;;;5014360;28;20404;-65
2021/01/21 06:52:31;;;;;;;1.13;1.00;;;21.40;50.40;;;;;;5014457;28;20485;-65
2021/01/21 06:55:02;;;;;;;1.47;1.00;;;21.50;50.50;;;;;;5014257;28;20412;-65
2021/01/21 06:57:33;;;;;;;1.20;0.90;;;21.50;50.50;;;;;;5014218;28;20413;-65
2021/01/21 06:59:59;;;;;;;1.67;1.00;;;21.40;50.40;;;;;;5014262;28;20407;-64
2021/01/21 07:02:50;;;;;;;1.13;0.90;;;21.40;50.40;;;;;;5014099;28;20454;-65
2021/01/21 07:05:21;;;;;;;1.93;1.10;;;21.50;50.40;;;;;;5014095;28;20399;-65
2021/01/21 07:07:56;;;;;;;2.37;1.40;;;21.40;50.40;;;;;;5014364;28;20447;-64
2021/01/21 07:10:40;;;;;;;2.00;1.27;;;21.40;50.40;;;;;;5015473;28;20422;-65
2021/01/21 07:13:20;;;;;;;1.57;1.03;;;21.40;50.40;;;;;;5014257;28;20431;-65
2021/01/21 07:16:14;;;;;;;2.17;1.20;;;21.50;50.50;;;;;;5014302;28;20379;-65
2021/01/21 07:18:41;;;;;;;3.17;1.33;;;21.50;50.50;;;;;;5012586;28;20494;-64
2021/01/21 07:21:12;;;;;;;2.13;1.07;;;21.40;50.40;;;;;;5012928;28;20494;-65
2021/01/21 07:23:47;;;;;;;1.57;1.07;;;21.40;50.50;;;;;;5014046;28;20465;-66
2021/01/21 07:26:31;;;;;;;1.63;1.00;;;21.50;50.60;;;;;;5012430;28;20407;-65
2021/01/21 07:29:14;;;;;;;1.97;1.10;;;21.50;50.50;;;;;;5013750;28;20450;-65
2021/01/21 07:31:52;;;;;;;2.70;1.67;;;21.50;50.50;;;;;;5013685;28;20764;-66
2021/01/21 07:34:40;;;;;;;1.43;1.10;;;21.50;50.60;;;;;;5013667;28;20411;-64
2021/01/21 07:37:22;;;;;;;2.20;1.00;;;21.50;50.50;;;;;;5012424;28;20411;-66
2021/01/21 07:39:48;;;;;;;1.60;1.17;;;21.50;50.60;;;;;;5013585;28;20748;-67
2021/01/21 07:42:14;;;;;;;1.33;1.10;;;21.50;50.60;;;;;;5013461;28;20427;-66
2021/01/21 07:45:13;;;;;;;1.50;1.10;;;21.60;50.70;;;;;;5013747;28;20430;-66
2021/01/21 07:47:46;;;;;;;2.60;0.90;;;21.60;50.60;;;;;;5013425;28;20167;-64
2021/01/21 07:50:18;;;;;;;1.47;1.10;;;21.60;51.20;;;;;;5013487;28;20384;-68
2021/01/21 07:52:55;;;;;;;2.13;1.23;;;21.60;50.60;;;;;;5013309;28;20431;-65
2021/01/21 07:55:32;;;;;;;1.70;1.00;;;21.60;50.60;;;;;;5013428;28;20787;-65
2021/01/21 07:58:37;;;;;;;1.40;1.07;;;21.60;50.60;;;;;;5013334;28;20399;-65
2021/01/21 08:01:07;;;;;;;1.70;1.10;;;21.60;50.60;;;;;;4991628;28;20424;-68
2021/01/21 08:03:41;;;;;;;1.23;0.90;;;21.60;50.70;;;;;;5005955;28;20814;-64
2021/01/21 08:06:21;;;;;;;2.77;1.23;;;21.60;50.60;;;;;;5013288;28;20395;-66
2021/01/21 08:08:49;;;;;;;1.43;0.90;;;21.60;50.60;;;;;;5013089;28;20463;-66
2021/01/21 08:11:19;;;;;;;1.73;0.93;;;21.60;50.60;;;;;;5013340;28;20427;-65
2021/01/21 08:13:48;;;;;;;1.33;1.00;;;21.60;50.70;;;;;;5013114;28;20493;-66
2021/01/21 08:16:15;;;;;;;1.60;1.07;;;21.60;50.60;;;;;;5013205;28;20852;-65
2021/01/21 08:18:41;;;;;;;2.07;1.20;;;21.60;50.60;;;;;;5013117;28;20415;-64
2021/01/21 08:21:23;;;;;;;3.70;1.63;;;21.60;50.60;;;;;;5013240;28;20491;-62
2021/01/21 08:23:57;;;;;;;2.23;1.00;;;21.70;50.70;;;;;;5013092;28;20439;-64
2021/01/21 08:26:24;;;;;;;1.53;0.80;;;21.60;50.70;;;;;;5013048;28;20404;-64
2021/01/21 08:28:49;;;;;;;1.40;0.97;;;21.60;50.60;;;;;;5013003;28;20462;-64
2021/01/21 08:31:16;;;;;;;1.87;1.10;;;21.60;50.70;;;;;;5013755;28;20412;-64
2021/01/21 08:33:43;;;;;;;1.30;1.00;;;21.60;50.70;;;;;;5013164;28;20185;-66
2021/01/21 08:36:12;;;;;;;1.37;0.93;;;21.60;50.70;;;;;;5012986;28;20410;-66
2021/01/21 08:38:45;;;;;;;3.30;1.33;;;21.70;50.70;;;;;;5013110;28;20944;-66
2021/01/21 08:41:14;;;;;;;1.87;1.13;;;21.70;50.70;;;;;;5013259;28;20387;-64
2021/01/21 08:43:42;;;;;;;2.80;1.40;;;21.70;50.70;;;;;;5013141;28;20442;-61
2021/01/21 08:46:16;;;;;;;1.97;1.20;;;21.70;50.70;;;;;;5020904;28;20430;-63
2021/01/21 08:48:43;;;;;;;1.50;0.90;;;21.70;50.70;;;;;;5013178;28;20529;-63
2021/01/21 08:51:34;;;;;;;1.80;0.90;;;21.70;50.70;;;;;;5013091;28;20407;-66
2021/01/21 08:54:19;;;;;;;2.30;1.30;;;21.70;50.60;;;;;;5012069;28;20427;-65
2021/01/21 08:57:04;;;;;;;2.43;1.60;;;21.70;50.60;;;;;;5026480;28;20405;-64
2021/01/21 08:59:30;;;;;;;1.90;1.10;;;21.70;50.70;;;;;;5027240;28;20967;-64
2021/01/21 09:01:57;;;;;;;2.13;1.50;;;21.70;50.70;;;;;;5027111;28;20407;-64
2021/01/21 09:04:31;;;;;;;1.37;1.10;;;21.60;50.70;;;;;;5026792;28;20408;-65
2021/01/21 09:07:01;;;;;;;1.87;1.10;;;21.70;50.70;;;;;;5025652;28;20392;-65
2021/01/21 09:09:34;;;;;;;1.60;1.27;;;21.70;50.70;;;;;;5024026;28;20578;-64
2021/01/21 09:12:16;;;;;;;3.60;1.50;;;21.70;50.70;;;;;;5015416;28;20431;-65
2021/01/21 09:14:43;;;;;;;2.37;1.60;;;21.70;50.70;;;;;;5016407;28;20491;-65
2021/01/21 09:17:13;;;;;;;2.80;1.67;;;21.70;50.60;;;;;;5016107;28;20465;-65
2021/01/21 09:19:41;;;;;;;3.73;1.93;;;21.70;50.60;;;;;;5016361;28;20412;-65
2021/01/21 09:22:15;;;;;;;2.47;1.90;;;21.80;50.70;;;;;;5014732;28;20438;-64
2021/01/21 09:25:03;;;;;;;4.07;2.10;;;21.80;50.70;;;;;;5016163;28;20407;-65
2021/01/21 09:27:37;;;;;;;2.10;1.60;;;21.80;50.70;;;;;;5016092;28;20485;-66
2021/01/21 09:30:11;;;;;;;2.67;1.73;;;21.70;50.70;;;;;;5015984;28;20906;-64
2021/01/21 09:32:39;;;;;;;2.27;1.50;;;21.70;50.60;;;;;;5016297;28;21006;-65
2021/01/21 09:35:22;;;;;;;4.67;2.60;;;21.70;50.60;;;;;;5017467;28;20415;-66
2021/01/21 09:37:55;;;;;;;2.83;1.70;;;21.80;50.70;;;;;;5015942;28;20429;-63
2021/01/21 09:40:31;;;;;;;2.80;1.73;;;21.80;50.70;;;;;;5015913;28;20394;-66
2021/01/21 09:42:59;;;;;;;4.10;2.17;;;21.80;50.70;;;;;;5014886;28;20428;-67
2021/01/21 09:45:25;;;;;;;3.13;2.33;;;21.80;50.70;;;;;;5013802;28;20649;-65
2021/01/21 09:47:52;;;;;;;2.83;1.90;;;21.80;50.70;;;;;;5013379;28;20451;-66
2021/01/21 09:50:19;;;;;;;3.07;2.10;;;21.80;50.70;;;;;;5013118;28;20486;-66
2021/01/21 09:52:45;;;;;;;2.73;1.90;;;21.80;50.70;;;;;;5015275;28;20430;-66
2021/01/21 09:55:11;;;;;;;3.10;1.77;;;21.80;50.70;;;;;;5013318;28;20404;-65
2021/01/21 09:57:39;;;;;;;5.97;2.03;;;21.70;50.60;;;;;;5013490;28;20466;-66
2021/01/21 10:00:06;;;;;;;3.53;2.00;;;21.70;50.60;;;;;;5015050;28;20411;-64
2021/01/21 10:02:31;;;;;;;3.30;1.90;;;21.70;50.60;;;;;;5015396;28;20426;-63
2021/01/21 10:04:57;;;;;;;3.80;1.70;;;21.70;50.60;;;;;;5015270;28;20396;-63
2021/01/21 10:07:23;;;;;;;2.90;1.90;;;21.70;50.70;;;;;;5014191;28;20636;-64
2021/01/21 10:09:48;;;;;;;4.10;2.00;;;21.80;50.70;;;;;;5015115;28;20200;-63
2021/01/21 10:12:14;;;;;;;3.30;2.30;;;21.80;50.70;;;;;;5015189;28;20262;-64
2021/01/21 10:14:39;;;;;;;6.70;1.90;;;21.70;51.20;;;;;;5015107;28;20580;-63
2021/01/21 10:17:09;;;;;;;2.80;1.87;;;21.80;50.70;;;;;;5015045;28;20172;-63
2021/01/21 10:19:35;;;;;;;4.80;2.50;;;21.80;50.60;;;;;;5014695;28;20168;-64
2021/01/21 10:22:00;;;;;;;4.30;2.37;;;21.80;50.60;;;;;;5013831;28;20413;-66
2021/01/21 10:24:27;;;;;;;4.20;3.07;;;21.80;50.50;;;;;;5012792;28;20426;-66
2021/01/21 10:26:53;;;;;;;3.30;2.07;;;21.80;50.50;;;;;;5011475;28;20180;-64
2021/01/21 10:29:19;;;;;;;2.33;1.70;;;21.80;50.50;;;;;;5012605;28;20809;-66
2021/01/21 10:31:45;;;;;;;4.03;1.77;;;21.80;50.40;;;;;;5011795;28;20709;-65
2021/01/21 10:34:11;;;;;;;2.80;2.10;;;21.80;50.40;;;;;;5012653;28;20403;-64
2021/01/21 10:36:37;;;;;;;2.90;1.60;;;21.90;50.50;;;;;;5012568;28;20890;-65
2021/01/21 10:39:04;;;;;;;3.60;2.10;;;21.90;50.50;;;;;;5014060;28;20558;-64
2021/01/21 10:41:30;;;;;;;5.53;1.70;;;21.90;50.50;;;;;;5014596;28;20419;-64
2021/01/21 10:43:56;;;;;;;3.33;1.73;;;21.90;50.40;;;;;;5014460;28;20434;-64
2021/01/21 10:46:22;;;;;;;5.40;1.90;;;21.90;50.40;;;;;;5014527;28;20486;-64
2021/01/21 10:48:47;;;;;;;3.50;2.47;;;21.90;50.40;;;;;;5014465;28;20250;-64
2021/01/21 10:51:13;;;;;;;4.23;1.90;;;21.90;50.40;;;;;;5014756;28;20195;-62
2021/01/21 10:53:38;;;;;;;3.47;2.10;;;21.90;50.40;;;;;;5012998;28;20231;-65
2021/01/21 10:56:05;;;;;;;3.00;1.80;;;22.00;50.40;;;;;;5014392;28;20211;-64
2021/01/21 10:58:31;;;;;;;3.57;2.20;;;21.90;50.40;;;;;;5014301;28;20226;-63
2021/01/21 11:00:57;;;;;;;4.03;1.90;;;22.00;50.40;;;;;;5012935;28;20460;-64
2021/01/21 11:03:22;;;;;;;3.50;2.03;;;22.00;50.50;;;;;;5012722;28;20451;-64
2021/01/21 11:05:48;;;;;;;3.07;1.90;;;22.00;50.40;;;;;;5014176;28;20180;-63
2021/01/21 11:08:13;;;;;;;3.53;1.80;;;22.00;50.40;;;;;;5014039;28;20243;-64
2021/01/21 11:10:40;;;;;;;4.10;1.70;;;22.00;50.60;;;;;;5014071;28;20173;-64
2021/01/21 11:13:07;;;;;;;3.70;2.00;;;22.00;50.60;;;;;;5014110;28;20196;-64
2021/01/21 11:15:33;;;;;;;4.20;3.07;;;22.00;50.60;;;;;;5012661;28;20438;-66
2021/01/21 11:17:59;;;;;;;4.27;2.00;;;22.00;50.50;;;;;;5012699;28;20404;-66
2021/01/21 11:20:25;;;;;;;3.53;2.00;;;22.00;50.50;;;;;;5011775;28;20422;-66
2021/01/21 11:22:51;;;;;;;2.83;2.50;;;22.00;50.50;;;;;;5011729;28;20431;-64
2021/01/21 11:25:16;;;;;;;3.90;2.00;;;22.00;50.50;;;;;;5011719;28;20275;-66
2021/01/21 11:27:42;;;;;;;3.13;2.30;;;22.00;50.50;;;;;;5011955;28;20263;-66
2021/01/21 11:30:12;;;;;;;6.23;2.53;;;22.00;50.50;;;;;;5010453;28;20235;-67
2021/01/21 11:32:38;;;;;;;2.90;2.07;;;22.00;50.50;;;;;;5011678;28;20184;-64
2021/01/21 11:35:07;;;;;;;5.17;2.50;;;22.00;50.50;;;;;;5013819;28;20414;-66
2021/01/21 11:37:33;;;;;;;5.10;2.33;;;22.00;50.50;;;;;;5013614;28;20427;-66
2021/01/21 11:39:58;;;;;;;6.33;2.40;;;22.00;50.50;;;;;;5013719;28;20406;-65
2021/01/21 11:42:24;;;;;;;3.27;2.20;;;22.00;50.50;;;;;;5013561;28;20435;-66
2021/01/21 11:44:50;;;;;;;6.67;2.90;;;22.00;50.60;;;;;;5013582;28;20606;-66
2021/01/21 11:47:16;;;;;;;3.70;2.20;;;22.00;50.60;;;;;;5013646;28;20400;-65
2021/01/21 11:49:43;;;;;;;4.70;2.40;;;22.00;50.60;;;;;;5013403;28;20196;-66
2021/01/21 11:52:09;;;;;;;5.30;3.57;;;22.00;50.60;;;;;;5013384;28;20419;-65
2021/01/21 11:54:35;;;;;;;4.00;2.10;;;22.00;50.60;;;;;;5013386;28;20419;-65
2021/01/21 11:57:00;;;;;;;4.20;2.20;;;22.00;50.60;;;;;;5013364;28;20168;-66
2021/01/21 11:59:26;;;;;;;3.67;2.13;;;22.00;50.60;;;;;;5012125;28;20176;-65
2021/01/21 12:01:52;;;;;;;4.50;2.20;;;22.00;50.60;;;;;;5013192;28;20643;-66
2021/01/21 12:04:18;;;;;;;4.03;2.20;;;22.00;50.60;;;;;;5011995;28;20180;-64
2021/01/21 12:06:44;;;;;;;4.80;2.50;;;22.00;50.50;;;;;;5013262;28;20407;-65
2021/01/21 12:09:09;;;;;;;4.03;2.20;;;22.00;50.60;;;;;;5013380;28;20195;-64
2021/01/21 12:11:35;;;;;;;3.50;2.10;;;22.00;50.50;;;;;;5012976;28;20188;-66
2021/01/21 12:14:01;;;;;;;3.10;2.00;;;22.00;50.50;;;;;;5011866;28;20287;-65
2021/01/21 12:16:27;;;;;;;5.93;3.20;;;22.00;50.50;;;;;;5013443;28;20199;-64
2021/01/21 12:18:54;;;;;;;3.60;2.07;;;22.10;50.60;;;;;;5011924;28;20415;-65
2021/01/21 12:21:21;;;;;;;3.63;2.43;;;22.10;50.60;;;;;;5013127;28;20172;-65
2021/01/21 12:23:46;;;;;;;4.40;2.33;;;22.00;50.60;;;;;;5013037;28;20435;-65
2021/01/21 12:26:12;;;;;;;5.73;2.60;;;22.10;50.60;;;;;;5013013;28;20411;-65
2021/01/21 12:28:38;;;;;;;4.70;2.37;;;22.10;50.60;;;;;;5013050;28;20200;-65
2021/01/21 12:31:04;;;;;;;3.60;2.23;;;22.10;50.60;;;;;;5014755;28;20973;-65
2021/01/21 12:33:30;;;;;;;8.33;3.80;;;22.10;50.60;;;;;;5016944;28;20685;-64
2021/01/21 12:35:56;;;;;;;3.03;2.03;;;22.10;50.70;;;;;;5017000;28;20395;-66
2021/01/21 12:38:22;;;;;;;4.90;2.67;;;22.10;50.70;;;;;;5016897;28;20179;-66
2021/01/21 12:40:47;;;;;;;4.47;2.43;;;22.10;50.60;;;;;;5016872;28;20403;-66
2021/01/21 12:43:13;;;;;;;2.70;2.20;;;22.10;50.60;;;;;;5016761;28;20796;-66
2021/01/21 12:45:40;;;;;;;3.17;2.07;;;22.10;50.70;;;;;;5015448;28;20669;-65
2021/01/21 12:48:10;;;;;;;4.30;2.00;;;22.10;50.70;;;;;;5016655;28;20200;-64
2021/01/21 12:50:35;;;;;;;2.80;2.00;;;22.10;50.60;;;;;;5017192;28;20457;-65
2021/01/21 12:53:01;;;;;;;3.53;1.93;;;22.10;50.70;;;;;;5016566;28;20431;-66
2021/01/21 12:55:26;;;;;;;5.60;2.70;;;22.10;50.70;;;;;;5016613;28;20203;-65
2021/01/21 12:57:52;;;;;;;4.67;2.43;;;22.10;50.70;;;;;;5016475;28;20168;-64